sensor_id;sensor_type;location;lat;lon;timestamp;temperature;humidity
9666;DHT22;4871;52.004;5.924;2023-03-01T00:00:00;0.9;74.1
9666;DHT22;4871;52.004;5.924;2023-03-01T00:01:01;0.9;73.8
9666;DHT22;4871;52.004;5.924;2023-03-01T00:02:00;0.9;74.1
9666;DHT22;4871;52.004;5.924;2023-03-01T00:03:00;0.9;74.1
9666;DHT22;4871;52.004;5.924;2023-03-01T00:04:00;0.9;74.1
9666;DHT22;4871;52.004;5.924;2023-03-01T00:05:00;0.9;73.6
9666;DHT22;4871;52.004;5.924;2023-03-01T00:06:01;0.9;73.8
9666;DHT22;4871;52.004;5.924;2023-03-01T00:07:00;0.9;73.7
9666;DHT22;4871;52.004;5.924;2023-03-01T00:08:00;0.8;73.7
9666;DHT22;4871;52.004;5.924;2023-03-01T00:09:00;0.8;74.3
9666;DHT22;4871;52.004;5.924;2023-03-01T00:10:00;0.8;74.3
9666;DHT22;4871;52.004;5.924;2023-03-01T00:11:02;0.8;74.1
9666;DHT22;4871;52.004;5.924;2023-03-01T00:12:00;0.8;74.0
9666;DHT22;4871;52.004;5.924;2023-03-01T00:13:00;0.8;73.9
9666;DHT22;4871;52.004;5.924;2023-03-01T00:14:02;0.8;74.1
9666;DHT22;4871;52.004;5.924;2023-03-01T00:15:00;0.8;73.8
9666;DHT22;4871;52.004;5.924;2023-03-01T00:16:02;0.8;73.8
9666;DHT22;4871;52.004;5.924;2023-03-01T00:17:00;0.7;73.9
9666;DHT22;4871;52.004;5.924;2023-03-01T00:18:00;0.7;74.1
9666;DHT22;4871;52.004;5.924;2023-03-01T00:19:00;0.8;74.3
9666;DHT22;4871;52.004;5.924;2023-03-01T00:20:00;0.8;74.2
9666;DHT22;4871;52.004;5.924;2023-03-01T00:21:00;0.7;74.1
9666;DHT22;4871;52.004;5.924;2023-03-01T00:22:00;0.7;74.1
9666;DHT22;4871;52.004;5.924;2023-03-01T00:23:00;0.7;73.8
9666;DHT22;4871;52.004;5.924;2023-03-01T00:24:01;0.7;74.2
9666;DHT22;4871;52.004;5.924;2023-03-01T00:25:00;0.7;73.7
9666;DHT22;4871;52.004;5.924;2023-03-01T00:26:00;0.7;73.8
9666;DHT22;4871;52.004;5.924;2023-03-01T00:27:00;0.7;73.9
9666;DHT22;4871;52.004;5.924;2023-03-01T00:28:00;0.7;73.8
9666;DHT22;4871;52.004;5.924;2023-03-01T00:29:00;0.7;74.1
9666;DHT22;4871;52.004;5.924;2023-03-01T00:30:00;0.6;73.8
9666;DHT22;4871;52.004;5.924;2023-03-01T00:31:03;0.6;74.3
9666;DHT22;4871;52.004;5.924;2023-03-01T00:32:00;0.6;74.2
9666;DHT22;4871;52.004;5.924;2023-03-01T00:33:00;0.6;74.5
9666;DHT22;4871;52.004;5.924;2023-03-01T00:34:02;0.6;74.5
9666;DHT22;4871;52.004;5.924;2023-03-01T00:35:00;0.6;74.5
9666;DHT22;4871;52.004;5.924;2023-03-01T00:36:00;0.6;74.4
9666;DHT22;4871;52.004;5.924;2023-03-01T00:37:05;0.5;74.3
9666;DHT22;4871;52.004;5.924;2023-03-01T00:38:01;0.6;73.9
9666;DHT22;4871;52.004;5.924;2023-03-01T00:39:00;0.5;74.2
9666;DHT22;4871;52.004;5.924;2023-03-01T00:40:00;0.6;74.3
9666;DHT22;4871;52.004;5.924;2023-03-01T00:41:03;0.6;74.2
9666;DHT22;4871;52.004;5.924;2023-03-01T00:42:00;0.6;73.8
9666;DHT22;4871;52.004;5.924;2023-03-01T00:43:01;0.5;73.9
9666;DHT22;4871;52.004;5.924;2023-03-01T00:44:00;0.5;74.4
9666;DHT22;4871;52.004;5.924;2023-03-01T00:45:00;0.5;73.8
9666;DHT22;4871;52.004;5.924;2023-03-01T00:46:00;0.5;74.2
9666;DHT22;4871;52.004;5.924;2023-03-01T00:47:00;0.5;74.4
9666;DHT22;4871;52.004;5.924;2023-03-01T00:48:00;0.5;74.0
9666;DHT22;4871;52.004;5.924;2023-03-01T00:49:02;0.5;74.3
9666;DHT22;4871;52.004;5.924;2023-03-01T00:50:00;0.5;74.1
9666;DHT22;4871;52.004;5.924;2023-03-01T00:51:05;0.4;74.1
9666;DHT22;4871;52.004;5.924;2023-03-01T00:52:00;0.5;73.9
9666;DHT22;4871;52.004;5.924;2023-03-01T00:53:00;0.4;73.9
9666;DHT22;4871;52.004;5.924;2023-03-01T00:54:01;0.4;74.5
9666;DHT22;4871;52.004;5.924;2023-03-01T00:55:00;0.4;74.6
9666;DHT22;4871;52.004;5.924;2023-03-01T00:56:00;0.4;74.7
9666;DHT22;4871;52.004;5.924;2023-03-01T00:57:00;0.4;74.0
9666;DHT22;4871;52.004;5.924;2023-03-01T00:58:00;0.4;73.8
9666;DHT22;4871;52.004;5.924;2023-03-01T00:59:00;0.4;74.0
9666;DHT22;4871;52.004;5.924;2023-03-01T01:00:00;0.4;74.3
9666;DHT22;4871;52.004;5.924;2023-03-01T01:01:00;0.4;73.9
9666;DHT22;4871;52.004;5.924;2023-03-01T01:02:00;0.4;74.0
9666;DHT22;4871;52.004;5.924;2023-03-01T01:03:00;0.3;74.5
9666;DHT22;4871;52.004;5.924;2023-03-01T01:04:02;0.3;74.4
9666;DHT22;4871;52.004;5.924;2023-03-01T01:05:00;0.3;74.3
9666;DHT22;4871;52.004;5.924;2023-03-01T01:06:25;0.4;74.3
9666;DHT22;4871;52.004;5.924;2023-03-01T01:07:00;0.3;73.9
9666;DHT22;4871;52.004;5.924;2023-03-01T01:08:00;0.3;74.1
9666;DHT22;4871;52.004;5.924;2023-03-01T01:09:00;0.3;74.3
9666;DHT22;4871;52.004;5.924;2023-03-01T01:10:00;0.3;74.5
9666;DHT22;4871;52.004;5.924;2023-03-01T01:11:00;0.3;74.3
9666;DHT22;4871;52.004;5.924;2023-03-01T01:12:00;0.3;74.1
9666;DHT22;4871;52.004;5.924;2023-03-01T01:13:00;0.3;74.2
9666;DHT22;4871;52.004;5.924;2023-03-01T01:14:00;0.3;74.0
9666;DHT22;4871;52.004;5.924;2023-03-01T01:15:00;0.3;74.5
9666;DHT22;4871;52.004;5.924;2023-03-01T01:16:00;0.3;74.0
9666;DHT22;4871;52.004;5.924;2023-03-01T01:17:00;0.2;74.5
9666;DHT22;4871;52.004;5.924;2023-03-01T01:18:00;0.2;74.3
9666;DHT22;4871;52.004;5.924;2023-03-01T01:19:00;0.2;74.4
9666;DHT22;4871;52.004;5.924;2023-03-01T01:20:00;0.2;74.2
9666;DHT22;4871;52.004;5.924;2023-03-01T01:21:04;0.2;74.2
9666;DHT22;4871;52.004;5.924;2023-03-01T01:22:00;0.2;74.2
9666;DHT22;4871;52.004;5.924;2023-03-01T01:23:00;0.2;74.4
9666;DHT22;4871;52.004;5.924;2023-03-01T01:24:03;0.2;74.2
9666;DHT22;4871;52.004;5.924;2023-03-01T01:25:00;0.1;74.4
9666;DHT22;4871;52.004;5.924;2023-03-01T01:26:05;0.1;74.4
9666;DHT22;4871;52.004;5.924;2023-03-01T01:27:00;0.1;74.6
9666;DHT22;4871;52.004;5.924;2023-03-01T01:28:00;0.1;74.5
9666;DHT22;4871;52.004;5.924;2023-03-01T01:29:02;0.1;74.5
9666;DHT22;4871;52.004;5.924;2023-03-01T01:30:00;0.1;74.5
9666;DHT22;4871;52.004;5.924;2023-03-01T01:31:00;0.1;74.5
9666;DHT22;4871;52.004;5.924;2023-03-01T01:32:00;0.1;74.6
9666;DHT22;4871;52.004;5.924;2023-03-01T01:33:00;0.1;74.4
9666;DHT22;4871;52.004;5.924;2023-03-01T01:34:02;0.1;74.0
9666;DHT22;4871;52.004;5.924;2023-03-01T01:35:00;0.1;74.4
9666;DHT22;4871;52.004;5.924;2023-03-01T01:36:00;0.1;74.4
9666;DHT22;4871;52.004;5.924;2023-03-01T01:37:02;0.1;74.3
9666;DHT22;4871;52.004;5.924;2023-03-01T01:38:00;0.1;74.3
9666;DHT22;4871;52.004;5.924;2023-03-01T01:39:01;0.1;74.4
9666;DHT22;4871;52.004;5.924;2023-03-01T01:40:01;0.0;74.4
9666;DHT22;4871;52.004;5.924;2023-03-01T01:41:00;0.1;74.2
9666;DHT22;4871;52.004;5.924;2023-03-01T01:42:00;0.1;74.4
9666;DHT22;4871;52.004;5.924;2023-03-01T01:43:00;0.0;74.1
9666;DHT22;4871;52.004;5.924;2023-03-01T01:44:19;0.1;74.4
9666;DHT22;4871;52.004;5.924;2023-03-01T01:45:33;0.0;74.3
9666;DHT22;4871;52.004;5.924;2023-03-01T01:46:02;0.1;74.1
9666;DHT22;4871;52.004;5.924;2023-03-01T01:47:02;0.0;74.4
9666;DHT22;4871;52.004;5.924;2023-03-01T01:48:03;-0.0;74.1
9666;DHT22;4871;52.004;5.924;2023-03-01T01:49:04;0.0;74.0
9666;DHT22;4871;52.004;5.924;2023-03-01T01:50:01;0.0;74.3
9666;DHT22;4871;52.004;5.924;2023-03-01T01:51:01;0.0;73.9
9666;DHT22;4871;52.004;5.924;2023-03-01T01:52:07;0.0;74.2
9666;DHT22;4871;52.004;5.924;2023-03-01T01:53:00;0.0;74.2
9666;DHT22;4871;52.004;5.924;2023-03-01T01:54:00;-0.0;74.4
9666;DHT22;4871;52.004;5.924;2023-03-01T01:55:03;0.0;74.4
9666;DHT22;4871;52.004;5.924;2023-03-01T01:56:01;-0.0;74.2
9666;DHT22;4871;52.004;5.924;2023-03-01T01:57:03;-0.1;74.5
9666;DHT22;4871;52.004;5.924;2023-03-01T01:58:02;-0.0;74.3
9666;DHT22;4871;52.004;5.924;2023-03-01T01:59:01;-0.0;74.5
9666;DHT22;4871;52.004;5.924;2023-03-01T02:00:05;-0.0;74.3
9666;DHT22;4871;52.004;5.924;2023-03-01T02:01:02;-0.0;74.2
9666;DHT22;4871;52.004;5.924;2023-03-01T02:02:02;-0.0;73.9
9666;DHT22;4871;52.004;5.924;2023-03-01T02:03:03;-0.0;74.1
9666;DHT22;4871;52.004;5.924;2023-03-01T02:04:00;-0.1;74.3
9666;DHT22;4871;52.004;5.924;2023-03-01T02:05:03;-0.0;74.4
9666;DHT22;4871;52.004;5.924;2023-03-01T02:06:04;-0.0;74.2
9666;DHT22;4871;52.004;5.924;2023-03-01T02:07:03;-0.1;74.5
9666;DHT22;4871;52.004;5.924;2023-03-01T02:08:00;-0.1;74.2
9666;DHT22;4871;52.004;5.924;2023-03-01T02:09:03;-0.1;74.0
9666;DHT22;4871;52.004;5.924;2023-03-01T02:10:00;-0.1;74.3
9666;DHT22;4871;52.004;5.924;2023-03-01T02:11:00;-0.0;73.9
9666;DHT22;4871;52.004;5.924;2023-03-01T02:12:01;-0.1;74.1
9666;DHT22;4871;52.004;5.924;2023-03-01T02:13:01;-0.1;74.3
9666;DHT22;4871;52.004;5.924;2023-03-01T02:14:00;-0.1;74.3
9666;DHT22;4871;52.004;5.924;2023-03-01T02:15:00;-0.1;74.1
9666;DHT22;4871;52.004;5.924;2023-03-01T02:16:02;-0.1;74.5
9666;DHT22;4871;52.004;5.924;2023-03-01T02:17:00;-0.1;74.2
9666;DHT22;4871;52.004;5.924;2023-03-01T02:18:01;-0.1;74.4
9666;DHT22;4871;52.004;5.924;2023-03-01T02:19:00;-0.1;74.2
9666;DHT22;4871;52.004;5.924;2023-03-01T02:20:11;-0.1;73.9
9666;DHT22;4871;52.004;5.924;2023-03-01T02:21:09;-0.1;74.3
9666;DHT22;4871;52.004;5.924;2023-03-01T02:22:06;-0.1;73.9
9666;DHT22;4871;52.004;5.924;2023-03-01T02:23:00;-0.2;74.5
9666;DHT22;4871;52.004;5.924;2023-03-01T02:24:07;-0.2;74.5
9666;DHT22;4871;52.004;5.924;2023-03-01T02:25:06;-0.2;74.2
9666;DHT22;4871;52.004;5.924;2023-03-01T02:26:03;-0.2;74.6
9666;DHT22;4871;52.004;5.924;2023-03-01T02:27:00;-0.2;74.5
9666;DHT22;4871;52.004;5.924;2023-03-01T02:28:06;-0.2;74.5
9666;DHT22;4871;52.004;5.924;2023-03-01T02:29:00;-0.2;74.2
9666;DHT22;4871;52.004;5.924;2023-03-01T02:30:00;-0.2;74.4
9666;DHT22;4871;52.004;5.924;2023-03-01T02:31:19;-0.1;74.2
9666;DHT22;4871;52.004;5.924;2023-03-01T02:32:02;-0.2;73.9
9666;DHT22;4871;52.004;5.924;2023-03-01T02:33:03;-0.1;74.1
9666;DHT22;4871;52.004;5.924;2023-03-01T02:34:01;-0.2;74.1
9666;DHT22;4871;52.004;5.924;2023-03-01T02:35:01;-0.2;74.4
9666;DHT22;4871;52.004;5.924;2023-03-01T02:36:01;-0.1;74.1
9666;DHT22;4871;52.004;5.924;2023-03-01T02:37:02;-0.1;74.1
9666;DHT22;4871;52.004;5.924;2023-03-01T02:38:01;-0.1;74.1
9666;DHT22;4871;52.004;5.924;2023-03-01T02:39:02;-0.1;74.1
9666;DHT22;4871;52.004;5.924;2023-03-01T02:40:04;-0.2;74.2
9666;DHT22;4871;52.004;5.924;2023-03-01T02:41:02;-0.2;74.2
9666;DHT22;4871;52.004;5.924;2023-03-01T02:42:01;-0.2;74.1
9666;DHT22;4871;52.004;5.924;2023-03-01T02:43:00;-0.2;74.3
9666;DHT22;4871;52.004;5.924;2023-03-01T02:44:00;-0.2;74.5
9666;DHT22;4871;52.004;5.924;2023-03-01T02:45:00;-0.2;74.4
9666;DHT22;4871;52.004;5.924;2023-03-01T02:46:04;-0.2;74.1
9666;DHT22;4871;52.004;5.924;2023-03-01T02:47:02;-0.2;74.3
9666;DHT22;4871;52.004;5.924;2023-03-01T02:48:00;-0.2;74.1
9666;DHT22;4871;52.004;5.924;2023-03-01T02:49:00;-0.2;74.3
9666;DHT22;4871;52.004;5.924;2023-03-01T02:50:00;-0.2;74.3
9666;DHT22;4871;52.004;5.924;2023-03-01T02:51:07;-0.2;74.3
9666;DHT22;4871;52.004;5.924;2023-03-01T02:52:12;-0.3;74.3
9666;DHT22;4871;52.004;5.924;2023-03-01T02:53:03;-0.3;74.5
9666;DHT22;4871;52.004;5.924;2023-03-01T02:54:08;-0.3;74.4
9666;DHT22;4871;52.004;5.924;2023-03-01T02:55:02;-0.3;74.5
9666;DHT22;4871;52.004;5.924;2023-03-01T02:56:00;-0.3;74.5
9666;DHT22;4871;52.004;5.924;2023-03-01T02:57:00;-0.3;74.6
9666;DHT22;4871;52.004;5.924;2023-03-01T02:58:02;-0.3;74.1
9666;DHT22;4871;52.004;5.924;2023-03-01T02:59:00;-0.3;74.7
9666;DHT22;4871;52.004;5.924;2023-03-01T03:00:03;-0.3;74.3
9666;DHT22;4871;52.004;5.924;2023-03-01T03:01:00;-0.3;74.4
9666;DHT22;4871;52.004;5.924;2023-03-01T03:02:00;-0.3;74.4
9666;DHT22;4871;52.004;5.924;2023-03-01T03:03:00;-0.3;74.1
9666;DHT22;4871;52.004;5.924;2023-03-01T03:04:00;-0.3;74.4
9666;DHT22;4871;52.004;5.924;2023-03-01T03:05:00;-0.3;74.1
9666;DHT22;4871;52.004;5.924;2023-03-01T03:06:00;-0.3;74.2
9666;DHT22;4871;52.004;5.924;2023-03-01T03:07:00;-0.4;74.1
9666;DHT22;4871;52.004;5.924;2023-03-01T03:08:01;-0.4;74.2
9666;DHT22;4871;52.004;5.924;2023-03-01T03:09:00;-0.4;74.3
9666;DHT22;4871;52.004;5.924;2023-03-01T03:10:00;-0.4;74.4
9666;DHT22;4871;52.004;5.924;2023-03-01T03:11:00;-0.4;74.3
9666;DHT22;4871;52.004;5.924;2023-03-01T03:12:00;-0.4;74.3
9666;DHT22;4871;52.004;5.924;2023-03-01T03:13:03;-0.4;74.4
9666;DHT22;4871;52.004;5.924;2023-03-01T03:14:00;-0.4;74.6
9666;DHT22;4871;52.004;5.924;2023-03-01T03:15:00;-0.5;74.2
9666;DHT22;4871;52.004;5.924;2023-03-01T03:16:02;-0.4;74.4
9666;DHT22;4871;52.004;5.924;2023-03-01T03:17:00;-0.4;74.3
9666;DHT22;4871;52.004;5.924;2023-03-01T03:18:00;-0.4;74.1
9666;DHT22;4871;52.004;5.924;2023-03-01T03:19:05;-0.5;74.5
9666;DHT22;4871;52.004;5.924;2023-03-01T03:20:00;-0.5;74.3
9666;DHT22;4871;52.004;5.924;2023-03-01T03:21:00;-0.5;74.4
9666;DHT22;4871;52.004;5.924;2023-03-01T03:22:00;-0.5;74.5
9666;DHT22;4871;52.004;5.924;2023-03-01T03:23:00;-0.5;74.5
9666;DHT22;4871;52.004;5.924;2023-03-01T03:24:01;-0.5;74.4
9666;DHT22;4871;52.004;5.924;2023-03-01T03:25:00;-0.5;74.4
9666;DHT22;4871;52.004;5.924;2023-03-01T03:26:00;-0.5;74.4
9666;DHT22;4871;52.004;5.924;2023-03-01T03:27:00;-0.5;74.4
9666;DHT22;4871;52.004;5.924;2023-03-01T03:28:00;-0.5;74.5
9666;DHT22;4871;52.004;5.924;2023-03-01T03:29:00;-0.5;74.2
9666;DHT22;4871;52.004;5.924;2023-03-01T03:30:00;-0.5;74.4
9666;DHT22;4871;52.004;5.924;2023-03-01T03:31:05;-0.5;74.1
9666;DHT22;4871;52.004;5.924;2023-03-01T03:32:00;-0.6;74.6
9666;DHT22;4871;52.004;5.924;2023-03-01T03:33:00;-0.6;74.6
9666;DHT22;4871;52.004;5.924;2023-03-01T03:34:00;-0.6;74.1
9666;DHT22;4871;52.004;5.924;2023-03-01T03:35:00;-0.6;74.8
9666;DHT22;4871;52.004;5.924;2023-03-01T03:36:00;-0.6;74.6
9666;DHT22;4871;52.004;5.924;2023-03-01T03:37:00;-0.6;74.5
9666;DHT22;4871;52.004;5.924;2023-03-01T03:38:05;-0.6;74.4
9666;DHT22;4871;52.004;5.924;2023-03-01T03:39:00;-0.5;74.4
9666;DHT22;4871;52.004;5.924;2023-03-01T03:40:00;-0.6;74.2
9666;DHT22;4871;52.004;5.924;2023-03-01T03:41:04;-0.5;74.2
9666;DHT22;4871;52.004;5.924;2023-03-01T03:42:01;-0.6;74.4
9666;DHT22;4871;52.004;5.924;2023-03-01T03:43:00;-0.6;74.5
9666;DHT22;4871;52.004;5.924;2023-03-01T03:44:00;-0.6;74.6
9666;DHT22;4871;52.004;5.924;2023-03-01T03:45:00;-0.7;74.7
9666;DHT22;4871;52.004;5.924;2023-03-01T03:46:01;-0.6;74.2
9666;DHT22;4871;52.004;5.924;2023-03-01T03:47:00;-0.6;74.3
9666;DHT22;4871;52.004;5.924;2023-03-01T03:48:01;-0.6;74.2
9666;DHT22;4871;52.004;5.924;2023-03-01T03:49:00;-0.6;74.5
9666;DHT22;4871;52.004;5.924;2023-03-01T03:50:00;-0.6;74.2
9666;DHT22;4871;52.004;5.924;2023-03-01T03:51:00;-0.6;74.3
9666;DHT22;4871;52.004;5.924;2023-03-01T03:52:00;-0.6;74.4
9666;DHT22;4871;52.004;5.924;2023-03-01T03:53:01;-0.6;74.1
9666;DHT22;4871;52.004;5.924;2023-03-01T03:54:00;-0.6;74.3
9666;DHT22;4871;52.004;5.924;2023-03-01T03:55:00;-0.6;74.3
9666;DHT22;4871;52.004;5.924;2023-03-01T03:56:00;-0.6;74.3
9666;DHT22;4871;52.004;5.924;2023-03-01T03:57:00;-0.6;74.5
9666;DHT22;4871;52.004;5.924;2023-03-01T03:58:08;-0.7;74.5
9666;DHT22;4871;52.004;5.924;2023-03-01T03:59:00;-0.7;74.6
9666;DHT22;4871;52.004;5.924;2023-03-01T04:00:00;-0.7;74.5
9666;DHT22;4871;52.004;5.924;2023-03-01T04:01:01;-0.7;74.3
9666;DHT22;4871;52.004;5.924;2023-03-01T04:02:00;-0.7;74.2
9666;DHT22;4871;52.004;5.924;2023-03-01T04:03:00;-0.7;74.2
9666;DHT22;4871;52.004;5.924;2023-03-01T04:04:04;-0.7;74.5
9666;DHT22;4871;52.004;5.924;2023-03-01T04:05:00;-0.6;73.9
9666;DHT22;4871;52.004;5.924;2023-03-01T04:06:01;-0.7;74.5
9666;DHT22;4871;52.004;5.924;2023-03-01T04:07:00;-0.7;74.3
9666;DHT22;4871;52.004;5.924;2023-03-01T04:08:01;-0.7;74.4
9666;DHT22;4871;52.004;5.924;2023-03-01T04:09:02;-0.7;74.2
9666;DHT22;4871;52.004;5.924;2023-03-01T04:10:00;-0.7;74.1
9666;DHT22;4871;52.004;5.924;2023-03-01T04:11:11;-0.7;74.0
9666;DHT22;4871;52.004;5.924;2023-03-01T04:12:00;-0.8;74.4
9666;DHT22;4871;52.004;5.924;2023-03-01T04:13:00;-0.7;74.4
9666;DHT22;4871;52.004;5.924;2023-03-01T04:14:00;-0.7;74.3
9666;DHT22;4871;52.004;5.924;2023-03-01T04:15:00;-0.7;74.4
9666;DHT22;4871;52.004;5.924;2023-03-01T04:16:00;-0.8;74.4
9666;DHT22;4871;52.004;5.924;2023-03-01T04:17:01;-0.8;74.6
9666;DHT22;4871;52.004;5.924;2023-03-01T04:18:00;-0.8;74.6
9666;DHT22;4871;52.004;5.924;2023-03-01T04:19:00;-0.8;74.2
9666;DHT22;4871;52.004;5.924;2023-03-01T04:20:06;-0.8;74.3
9666;DHT22;4871;52.004;5.924;2023-03-01T04:21:00;-0.8;74.6
9666;DHT22;4871;52.004;5.924;2023-03-01T04:22:00;-0.8;74.7
9666;DHT22;4871;52.004;5.924;2023-03-01T04:23:12;-0.8;74.1
9666;DHT22;4871;52.004;5.924;2023-03-01T04:24:01;-0.8;74.6
9666;DHT22;4871;52.004;5.924;2023-03-01T04:25:06;-0.8;74.6
9666;DHT22;4871;52.004;5.924;2023-03-01T04:26:00;-0.8;74.4
9666;DHT22;4871;52.004;5.924;2023-03-01T04:27:00;-0.8;74.3
9666;DHT22;4871;52.004;5.924;2023-03-01T04:28:00;-0.8;74.2
9666;DHT22;4871;52.004;5.924;2023-03-01T04:29:00;-0.8;74.2
9666;DHT22;4871;52.004;5.924;2023-03-01T04:30:00;-0.9;74.6
9666;DHT22;4871;52.004;5.924;2023-03-01T04:31:03;-0.9;74.7
9666;DHT22;4871;52.004;5.924;2023-03-01T04:32:00;-0.9;74.7
9666;DHT22;4871;52.004;5.924;2023-03-01T04:33:00;-0.9;74.3
9666;DHT22;4871;52.004;5.924;2023-03-01T04:34:00;-0.9;74.3
9666;DHT22;4871;52.004;5.924;2023-03-01T04:35:00;-0.8;74.1
9666;DHT22;4871;52.004;5.924;2023-03-01T04:36:00;-0.9;74.6
9666;DHT22;4871;52.004;5.924;2023-03-01T04:37:00;-0.9;74.5
9666;DHT22;4871;52.004;5.924;2023-03-01T04:38:00;-0.9;74.6
9666;DHT22;4871;52.004;5.924;2023-03-01T04:39:10;-0.9;74.4
9666;DHT22;4871;52.004;5.924;2023-03-01T04:40:00;-0.9;74.3
9666;DHT22;4871;52.004;5.924;2023-03-01T04:41:00;-0.8;74.1
9666;DHT22;4871;52.004;5.924;2023-03-01T04:42:00;-0.8;74.4
9666;DHT22;4871;52.004;5.924;2023-03-01T04:43:01;-0.9;74.4
9666;DHT22;4871;52.004;5.924;2023-03-01T04:44:00;-0.9;74.5
9666;DHT22;4871;52.004;5.924;2023-03-01T04:45:00;-0.9;74.2
9666;DHT22;4871;52.004;5.924;2023-03-01T04:46:03;-0.9;74.4
9666;DHT22;4871;52.004;5.924;2023-03-01T04:47:00;-0.9;74.3
9666;DHT22;4871;52.004;5.924;2023-03-01T04:48:00;-0.9;74.4
9666;DHT22;4871;52.004;5.924;2023-03-01T04:49:00;-0.9;74.7
9666;DHT22;4871;52.004;5.924;2023-03-01T04:50:00;-1.0;74.7
9666;DHT22;4871;52.004;5.924;2023-03-01T04:51:00;-0.9;74.3
9666;DHT22;4871;52.004;5.924;2023-03-01T04:52:02;-0.9;74.6
9666;DHT22;4871;52.004;5.924;2023-03-01T04:53:00;-0.9;74.2
9666;DHT22;4871;52.004;5.924;2023-03-01T04:54:00;-0.9;74.6
9666;DHT22;4871;52.004;5.924;2023-03-01T04:55:00;-1.0;74.8
9666;DHT22;4871;52.004;5.924;2023-03-01T04:56:00;-0.9;74.9
9666;DHT22;4871;52.004;5.924;2023-03-01T04:57:01;-1.0;74.7
9666;DHT22;4871;52.004;5.924;2023-03-01T04:58:00;-0.9;74.3
9666;DHT22;4871;52.004;5.924;2023-03-01T04:59:00;-0.9;74.5
9666;DHT22;4871;52.004;5.924;2023-03-01T05:00:00;-0.9;74.5
9666;DHT22;4871;52.004;5.924;2023-03-01T05:01:00;-0.9;74.5
9666;DHT22;4871;52.004;5.924;2023-03-01T05:02:00;-0.9;74.3
9666;DHT22;4871;52.004;5.924;2023-03-01T05:03:00;-1.0;74.4
9666;DHT22;4871;52.004;5.924;2023-03-01T05:04:02;-1.0;74.7
9666;DHT22;4871;52.004;5.924;2023-03-01T05:05:00;-0.9;74.2
9666;DHT22;4871;52.004;5.924;2023-03-01T05:06:00;-0.9;74.1
9666;DHT22;4871;52.004;5.924;2023-03-01T05:07:00;-0.9;74.4
9666;DHT22;4871;52.004;5.924;2023-03-01T05:08:01;-0.9;74.1
9666;DHT22;4871;52.004;5.924;2023-03-01T05:09:00;-0.9;74.3
9666;DHT22;4871;52.004;5.924;2023-03-01T05:10:00;-1.0;74.6
9666;DHT22;4871;52.004;5.924;2023-03-01T05:11:00;-1.0;74.5
9666;DHT22;4871;52.004;5.924;2023-03-01T05:12:00;-1.0;74.5
9666;DHT22;4871;52.004;5.924;2023-03-01T05:13:01;-1.0;74.4
9666;DHT22;4871;52.004;5.924;2023-03-01T05:14:00;-1.0;74.5
9666;DHT22;4871;52.004;5.924;2023-03-01T05:15:00;-1.0;74.6
9666;DHT22;4871;52.004;5.924;2023-03-01T05:16:01;-0.9;74.3
9666;DHT22;4871;52.004;5.924;2023-03-01T05:17:03;-1.0;74.2
9666;DHT22;4871;52.004;5.924;2023-03-01T05:18:00;-1.0;74.6
9666;DHT22;4871;52.004;5.924;2023-03-01T05:19:00;-1.0;74.6
9666;DHT22;4871;52.004;5.924;2023-03-01T05:20:01;-1.0;74.4
9666;DHT22;4871;52.004;5.924;2023-03-01T05:21:03;-1.0;74.6
9666;DHT22;4871;52.004;5.924;2023-03-01T05:22:01;-1.0;74.3
9666;DHT22;4871;52.004;5.924;2023-03-01T05:23:00;-1.0;74.2
9666;DHT22;4871;52.004;5.924;2023-03-01T05:24:00;-1.0;74.2
9666;DHT22;4871;52.004;5.924;2023-03-01T05:25:00;-1.0;74.5
9666;DHT22;4871;52.004;5.924;2023-03-01T05:26:01;-1.1;74.7
9666;DHT22;4871;52.004;5.924;2023-03-01T05:27:01;-1.1;74.7
9666;DHT22;4871;52.004;5.924;2023-03-01T05:28:04;-1.1;74.7
9666;DHT22;4871;52.004;5.924;2023-03-01T05:29:00;-1.0;74.4
9666;DHT22;4871;52.004;5.924;2023-03-01T05:30:11;-1.0;74.2
9666;DHT22;4871;52.004;5.924;2023-03-01T05:31:00;-1.0;74.2
9666;DHT22;4871;52.004;5.924;2023-03-01T05:32:01;-1.1;74.5
9666;DHT22;4871;52.004;5.924;2023-03-01T05:33:00;-1.1;74.3
9666;DHT22;4871;52.004;5.924;2023-03-01T05:34:01;-1.0;74.3
9666;DHT22;4871;52.004;5.924;2023-03-01T05:35:00;-1.1;74.2
9666;DHT22;4871;52.004;5.924;2023-03-01T05:36:00;-1.1;74.6
9666;DHT22;4871;52.004;5.924;2023-03-01T05:37:01;-1.1;74.8
9666;DHT22;4871;52.004;5.924;2023-03-01T05:38:00;-1.1;74.5
9666;DHT22;4871;52.004;5.924;2023-03-01T05:39:00;-1.1;74.5
9666;DHT22;4871;52.004;5.924;2023-03-01T05:40:00;-1.1;74.4
9666;DHT22;4871;52.004;5.924;2023-03-01T05:41:00;-1.1;74.4
9666;DHT22;4871;52.004;5.924;2023-03-01T05:42:01;-1.1;74.6
9666;DHT22;4871;52.004;5.924;2023-03-01T05:43:00;-1.1;74.7
9666;DHT22;4871;52.004;5.924;2023-03-01T05:44:00;-1.1;74.4
9666;DHT22;4871;52.004;5.924;2023-03-01T05:45:00;-1.1;74.3
9666;DHT22;4871;52.004;5.924;2023-03-01T05:46:00;-1.2;74.4
9666;DHT22;4871;52.004;5.924;2023-03-01T05:47:00;-1.2;74.8
9666;DHT22;4871;52.004;5.924;2023-03-01T05:48:00;-1.1;74.2
9666;DHT22;4871;52.004;5.924;2023-03-01T05:49:00;-1.1;74.7
9666;DHT22;4871;52.004;5.924;2023-03-01T05:50:00;-1.2;74.5
9666;DHT22;4871;52.004;5.924;2023-03-01T05:51:00;-1.2;74.5
9666;DHT22;4871;52.004;5.924;2023-03-01T05:52:00;-1.2;74.2
9666;DHT22;4871;52.004;5.924;2023-03-01T05:53:02;-1.2;74.5
9666;DHT22;4871;52.004;5.924;2023-03-01T05:54:00;-1.2;74.6
9666;DHT22;4871;52.004;5.924;2023-03-01T05:55:00;-1.2;74.5
9666;DHT22;4871;52.004;5.924;2023-03-01T05:56:03;-1.2;74.4
9666;DHT22;4871;52.004;5.924;2023-03-01T05:57:00;-1.1;74.2
9666;DHT22;4871;52.004;5.924;2023-03-01T05:58:01;-1.2;74.3
9666;DHT22;4871;52.004;5.924;2023-03-01T05:59:00;-1.2;74.3
9666;DHT22;4871;52.004;5.924;2023-03-01T06:00:00;-1.2;74.5
9666;DHT22;4871;52.004;5.924;2023-03-01T06:01:00;-1.2;74.1
9666;DHT22;4871;52.004;5.924;2023-03-01T06:02:00;-1.2;74.6
9666;DHT22;4871;52.004;5.924;2023-03-01T06:03:00;-1.2;74.5
9666;DHT22;4871;52.004;5.924;2023-03-01T06:04:00;-1.2;74.7
9666;DHT22;4871;52.004;5.924;2023-03-01T06:05:00;-1.2;74.6
9666;DHT22;4871;52.004;5.924;2023-03-01T06:06:00;-1.3;74.4
9666;DHT22;4871;52.004;5.924;2023-03-01T06:07:00;-1.3;74.6
9666;DHT22;4871;52.004;5.924;2023-03-01T06:08:01;-1.3;74.7
9666;DHT22;4871;52.004;5.924;2023-03-01T06:09:00;-1.3;74.6
9666;DHT22;4871;52.004;5.924;2023-03-01T06:10:00;-1.3;74.6
9666;DHT22;4871;52.004;5.924;2023-03-01T06:11:00;-1.2;74.7
9666;DHT22;4871;52.004;5.924;2023-03-01T06:12:00;-1.2;74.3
9666;DHT22;4871;52.004;5.924;2023-03-01T06:13:00;-1.3;74.5
9666;DHT22;4871;52.004;5.924;2023-03-01T06:14:00;-1.3;74.7
9666;DHT22;4871;52.004;5.924;2023-03-01T06:15:00;-1.3;74.6
9666;DHT22;4871;52.004;5.924;2023-03-01T06:16:00;-1.3;74.5
9666;DHT22;4871;52.004;5.924;2023-03-01T06:17:00;-1.3;74.4
9666;DHT22;4871;52.004;5.924;2023-03-01T06:18:00;-1.3;74.4
9666;DHT22;4871;52.004;5.924;2023-03-01T06:19:00;-1.3;74.3
9666;DHT22;4871;52.004;5.924;2023-03-01T06:20:01;-1.3;74.6
9666;DHT22;4871;52.004;5.924;2023-03-01T06:21:00;-1.3;74.9
9666;DHT22;4871;52.004;5.924;2023-03-01T06:22:00;-1.3;74.6
9666;DHT22;4871;52.004;5.924;2023-03-01T06:23:00;-1.3;74.6
9666;DHT22;4871;52.004;5.924;2023-03-01T06:24:00;-1.3;74.2
9666;DHT22;4871;52.004;5.924;2023-03-01T06:25:00;-1.4;74.7
9666;DHT22;4871;52.004;5.924;2023-03-01T06:26:00;-1.4;74.7
9666;DHT22;4871;52.004;5.924;2023-03-01T06:27:00;-1.3;74.5
9666;DHT22;4871;52.004;5.924;2023-03-01T06:28:00;-1.4;74.7
9666;DHT22;4871;52.004;5.924;2023-03-01T06:29:00;-1.4;74.9
9666;DHT22;4871;52.004;5.924;2023-03-01T06:30:00;-1.3;74.7
9666;DHT22;4871;52.004;5.924;2023-03-01T06:31:00;-1.3;74.6
9666;DHT22;4871;52.004;5.924;2023-03-01T06:32:00;-1.3;74.6
9666;DHT22;4871;52.004;5.924;2023-03-01T06:33:03;-1.3;74.4
9666;DHT22;4871;52.004;5.924;2023-03-01T06:34:00;-1.3;74.4
9666;DHT22;4871;52.004;5.924;2023-03-01T06:35:00;-1.3;74.4
9666;DHT22;4871;52.004;5.924;2023-03-01T06:36:00;-1.4;74.6
9666;DHT22;4871;52.004;5.924;2023-03-01T06:37:06;-1.3;74.4
9666;DHT22;4871;52.004;5.924;2023-03-01T06:38:01;-1.4;74.6
9666;DHT22;4871;52.004;5.924;2023-03-01T06:39:00;-1.4;74.5
9666;DHT22;4871;52.004;5.924;2023-03-01T06:40:06;-1.4;74.6
9666;DHT22;4871;52.004;5.924;2023-03-01T06:41:01;-1.4;74.7
9666;DHT22;4871;52.004;5.924;2023-03-01T06:42:00;-1.4;74.7
9666;DHT22;4871;52.004;5.924;2023-03-01T06:43:01;-1.4;74.7
9666;DHT22;4871;52.004;5.924;2023-03-01T06:44:00;-1.4;74.5
9666;DHT22;4871;52.004;5.924;2023-03-01T06:45:00;-1.4;74.9
9666;DHT22;4871;52.004;5.924;2023-03-01T06:46:03;-1.4;75.0